sensor_id;sensor_type;location;lat;lon;timestamp;P1;P2;P0
63131;PMS5003;49234;35.600;139.358;2023-02-08T00:01:57;66;62;
63131;PMS5003;49234;35.600;139.358;2023-02-08T00:04:26;66;56;
63131;PMS5003;49234;35.600;139.358;2023-02-08T00:06:55;69;63;
63131;PMS5003;49234;35.600;139.358;2023-02-08T00:09:25;68;65;
63131;PMS5003;49234;35.600;139.358;2023-02-08T00:11:54;64;57;
63131;PMS5003;49234;35.600;139.358;2023-02-08T00:14:24;70;69;
63131;PMS5003;49234;35.600;139.358;2023-02-08T00:16:54;68;66;
63131;PMS5003;49234;35.600;139.358;2023-02-08T00:19:24;61;58;
63131;PMS5003;49234;35.600;139.358;2023-02-08T00:21:53;67;59;
63131;PMS5003;49234;35.600;139.358;2023-02-08T00:24:22;60;57;
63131;PMS5003;49234;35.600;139.358;2023-02-08T00:26:52;68;56;
63131;PMS5003;49234;35.600;139.358;2023-02-08T00:29:20;65;62;
63131;PMS5003;49234;35.600;139.358;2023-02-08T00:32:00;64;58;
63131;PMS5003;49234;35.600;139.358;2023-02-08T00:34:31;61;56;
63131;PMS5003;49234;35.600;139.358;2023-02-08T00:34:33;59;54;
63131;PMS5003;49234;35.600;139.358;2023-02-08T00:37:02;60;53;
63131;PMS5003;49234;35.600;139.358;2023-02-08T00:39:33;56;52;
63131;PMS5003;49234;35.600;139.358;2023-02-08T00:42:02;68;61;
63131;PMS5003;49234;35.600;139.358;2023-02-08T00:44:32;61;57;
63131;PMS5003;49234;35.600;139.358;2023-02-08T00:47:06;61;58;
63131;PMS5003;49234;35.600;139.358;2023-02-08T00:49:36;59;58;
63131;PMS5003;49234;35.600;139.358;2023-02-08T00:52:06;89;85;
63131;PMS5003;49234;35.600;139.358;2023-02-08T00:54:35;53;50;
63131;PMS5003;49234;35.600;139.358;2023-02-08T00:57:05;56;54;
63131;PMS5003;49234;35.600;139.358;2023-02-08T00:59:34;60;59;
63131;PMS5003;49234;35.600;139.358;2023-02-08T01:02:06;51;46;
63131;PMS5003;49234;35.600;139.358;2023-02-08T01:04:35;54;50;
63131;PMS5003;49234;35.600;139.358;2023-02-08T01:07:05;56;55;
63131;PMS5003;49234;35.600;139.358;2023-02-08T01:09:48;56;52;
63131;PMS5003;49234;35.600;139.358;2023-02-08T01:12:28;53;47;
63131;PMS5003;49234;35.600;139.358;2023-02-08T01:14:57;50;44;
63131;PMS5003;49234;35.600;139.358;2023-02-08T01:17:26;47;43;
63131;PMS5003;49234;35.600;139.358;2023-02-08T01:19:55;59;51;
63131;PMS5003;49234;35.600;139.358;2023-02-08T01:22:24;53;50;
63131;PMS5003;49234;35.600;139.358;2023-02-08T01:24:55;58;52;
63131;PMS5003;49234;35.600;139.358;2023-02-08T01:27:25;47;46;
63131;PMS5003;49234;35.600;139.358;2023-02-08T01:29:55;51;50;
63131;PMS5003;49234;35.600;139.358;2023-02-08T01:32:24;45;43;
63131;PMS5003;49234;35.600;139.358;2023-02-08T01:34:54;50;44;
63131;PMS5003;49234;35.600;139.358;2023-02-08T01:37:23;47;44;
63131;PMS5003;49234;35.600;139.358;2023-02-08T01:39:53;49;47;
63131;PMS5003;49234;35.600;139.358;2023-02-08T01:42:22;52;49;
63131;PMS5003;49234;35.600;139.358;2023-02-08T01:45:27;49;48;
63131;PMS5003;49234;35.600;139.358;2023-02-08T01:48:01;55;53;
63131;PMS5003;49234;35.600;139.358;2023-02-08T01:50:38;49;47;
63131;PMS5003;49234;35.600;139.358;2023-02-08T01:53:14;61;52;
63131;PMS5003;49234;35.600;139.358;2023-02-08T01:55:46;48;47;
63131;PMS5003;49234;35.600;139.358;2023-02-08T01:58:25;49;45;
63131;PMS5003;49234;35.600;139.358;2023-02-08T02:00:56;44;44;
63131;PMS5003;49234;35.600;139.358;2023-02-08T02:03:26;45;42;
63131;PMS5003;49234;35.600;139.358;2023-02-08T02:06:00;52;49;
63131;PMS5003;49234;35.600;139.358;2023-02-08T02:08:34;51;47;
63131;PMS5003;49234;35.600;139.358;2023-02-08T02:11:04;43;40;
63131;PMS5003;49234;35.600;139.358;2023-02-08T02:13:35;49;45;
63131;PMS5003;49234;35.600;139.358;2023-02-08T02:16:06;46;44;
63131;PMS5003;49234;35.600;139.358;2023-02-08T02:18:35;54;46;
63131;PMS5003;49234;35.600;139.358;2023-02-08T02:21:11;36;35;
63131;PMS5003;49234;35.600;139.358;2023-02-08T02:23:57;42;42;
63131;PMS5003;49234;35.600;139.358;2023-02-08T02:27:00;49;45;
63131;PMS5003;49234;35.600;139.358;2023-02-08T02:29:56;40;38;
63131;PMS5003;49234;35.600;139.358;2023-02-08T02:33:52;46;43;
63131;PMS5003;49234;35.600;139.358;2023-02-08T02:36:34;50;47;
63131;PMS5003;49234;35.600;139.358;2023-02-08T02:39:13;43;41;
63131;PMS5003;49234;35.600;139.358;2023-02-08T02:41:52;42;40;
63131;PMS5003;49234;35.600;139.358;2023-02-08T02:44:30;45;42;
63131;PMS5003;49234;35.600;139.358;2023-02-08T02:47:07;48;45;
63131;PMS5003;49234;35.600;139.358;2023-02-08T02:49:44;49;46;
63131;PMS5003;49234;35.600;139.358;2023-02-08T02:52:24;48;42;
63131;PMS5003;49234;35.600;139.358;2023-02-08T02:54:59;50;45;
63131;PMS5003;49234;35.600;139.358;2023-02-08T02:57:31;46;42;
63131;PMS5003;49234;35.600;139.358;2023-02-08T03:00:09;45;41;
63131;PMS5003;49234;35.600;139.358;2023-02-08T03:02:44;44;44;
63131;PMS5003;49234;35.600;139.358;2023-02-08T03:05:13;46;43;
63131;PMS5003;49234;35.600;139.358;2023-02-08T03:07:49;44;42;
63131;PMS5003;49234;35.600;139.358;2023-02-08T03:10:37;55;48;
63131;PMS5003;49234;35.600;139.358;2023-02-08T03:13:19;51;45;
63131;PMS5003;49234;35.600;139.358;2023-02-08T03:15:58;41;40;
63131;PMS5003;49234;35.600;139.358;2023-02-08T03:18:35;43;41;
63131;PMS5003;49234;35.600;139.358;2023-02-08T03:21:11;49;45;
63131;PMS5003;49234;35.600;139.358;2023-02-08T03:23:50;50;46;
63131;PMS5003;49234;35.600;139.358;2023-02-08T03:26:28;50;47;
63131;PMS5003;49234;35.600;139.358;2023-02-08T03:29:03;40;36;
63131;PMS5003;49234;35.600;139.358;2023-02-08T03:31:39;51;44;
63131;PMS5003;49234;35.600;139.358;2023-02-08T03:34:15;48;47;
63131;PMS5003;49234;35.600;139.358;2023-02-08T03:36:48;43;42;
63131;PMS5003;49234;35.600;139.358;2023-02-08T03:39:22;45;39;
63131;PMS5003;49234;35.600;139.358;2023-02-08T03:41:56;43;40;
63131;PMS5003;49234;35.600;139.358;2023-02-08T03:44:45;44;39;
63131;PMS5003;49234;35.600;139.358;2023-02-08T03:47:21;52;43;
63131;PMS5003;49234;35.600;139.358;2023-02-08T03:49:54;44;42;
63131;PMS5003;49234;35.600;139.358;2023-02-08T03:52:27;47;42;
63131;PMS5003;49234;35.600;139.358;2023-02-08T03:54:59;43;39;
63131;PMS5003;49234;35.600;139.358;2023-02-08T03:57:32;48;42;
63131;PMS5003;49234;35.600;139.358;2023-02-08T04:00:08;46;44;
63131;PMS5003;49234;35.600;139.358;2023-02-08T04:02:42;45;41;
63131;PMS5003;49234;35.600;139.358;2023-02-08T04:05:15;40;37;
63131;PMS5003;49234;35.600;139.358;2023-02-08T04:07:45;39;37;
63131;PMS5003;49234;35.600;139.358;2023-02-08T04:10:14;51;44;
63131;PMS5003;49234;35.600;139.358;2023-02-08T04:12:43;48;43;
63131;PMS5003;49234;35.600;139.358;2023-02-08T04:15:14;45;42;
63131;PMS5003;49234;35.600;139.358;2023-02-08T04:17:43;45;44;
63131;PMS5003;49234;35.600;139.358;2023-02-08T04:20:12;45;43;
63131;PMS5003;49234;35.600;139.358;2023-02-08T04:22:41;47;42;
63131;PMS5003;49234;35.600;139.358;2023-02-08T04:25:10;45;45;
63131;PMS5003;49234;35.600;139.358;2023-02-08T04:27:40;44;42;
63131;PMS5003;49234;35.600;139.358;2023-02-08T04:30:09;40;37;
63131;PMS5003;49234;35.600;139.358;2023-02-08T04:32:38;48;44;
63131;PMS5003;49234;35.600;139.358;2023-02-08T04:35:07;49;46;
63131;PMS5003;49234;35.600;139.358;2023-02-08T04:37:37;47;45;
63131;PMS5003;49234;35.600;139.358;2023-02-08T04:40:31;43;39;
63131;PMS5003;49234;35.600;139.358;2023-02-08T04:44:03;50;45;
63131;PMS5003;49234;35.600;139.358;2023-02-08T04:46:32;42;41;
63131;PMS5003;49234;35.600;139.358;2023-02-08T04:49:01;47;46;
63131;PMS5003;49234;35.600;139.358;2023-02-08T04:51:34;52;46;
63131;PMS5003;49234;35.600;139.358;2023-02-08T04:54:04;51;45;
63131;PMS5003;49234;35.600;139.358;2023-02-08T04:56:35;46;45;
63131;PMS5003;49234;35.600;139.358;2023-02-08T04:59:04;49;46;
63131;PMS5003;49234;35.600;139.358;2023-02-08T05:01:33;44;44;
63131;PMS5003;49234;35.600;139.358;2023-02-08T05:04:02;43;40;
63131;PMS5003;49234;35.600;139.358;2023-02-08T05:06:32;44;43;
63131;PMS5003;49234;35.600;139.358;2023-02-08T05:09:01;51;46;
63131;PMS5003;49234;35.600;139.358;2023-02-08T05:11:34;47;45;
63131;PMS5003;49234;35.600;139.358;2023-02-08T05:14:03;49;48;
63131;PMS5003;49234;35.600;139.358;2023-02-08T05:16:32;49;47;
63131;PMS5003;49234;35.600;139.358;2023-02-08T05:19:01;51;44;
63131;PMS5003;49234;35.600;139.358;2023-02-08T05:21:30;48;43;
63131;PMS5003;49234;35.600;139.358;2023-02-08T05:23:59;48;43;
63131;PMS5003;49234;35.600;139.358;2023-02-08T05:26:28;46;43;
63131;PMS5003;49234;35.600;139.358;2023-02-08T05:28:57;51;43;
63131;PMS5003;49234;35.600;139.358;2023-02-08T05:31:27;43;43;
63131;PMS5003;49234;35.600;139.358;2023-02-08T05:33:56;44;44;
63131;PMS5003;49234;35.600;139.358;2023-02-08T05:36:26;40;39;
63131;PMS5003;49234;35.600;139.358;2023-02-08T05:38:57;42;42;
63131;PMS5003;49234;35.600;139.358;2023-02-08T05:41:26;50;45;
63131;PMS5003;49234;35.600;139.358;2023-02-08T05:43:59;44;41;
63131;PMS5003;49234;35.600;139.358;2023-02-08T05:46:30;45;40;
63131;PMS5003;49234;35.600;139.358;2023-02-08T05:49:00;48;47;
63131;PMS5003;49234;35.600;139.358;2023-02-08T05:51:29;60;48;
63131;PMS5003;49234;35.600;139.358;2023-02-08T05:53:59;44;44;
63131;PMS5003;49234;35.600;139.358;2023-02-08T05:56:28;50;48;
63131;PMS5003;49234;35.600;139.358;2023-02-08T05:59:02;48;47;
63131;PMS5003;49234;35.600;139.358;2023-02-08T06:01:32;50;49;
63131;PMS5003;49234;35.600;139.358;2023-02-08T06:04:03;46;39;
63131;PMS5003;49234;35.600;139.358;2023-02-08T06:06:32;47;45;
63131;PMS5003;49234;35.600;139.358;2023-02-08T06:09:01;50;47;
63131;PMS5003;49234;35.600;139.358;2023-02-08T06:11:30;48;42;
63131;PMS5003;49234;35.600;139.358;2023-02-08T06:13:59;55;51;
63131;PMS5003;49234;35.600;139.358;2023-02-08T06:16:28;51;43;
63131;PMS5003;49234;35.600;139.358;2023-02-08T06:18:57;38;36;
63131;PMS5003;49234;35.600;139.358;2023-02-08T06:21:26;46;43;
63131;PMS5003;49234;35.600;139.358;2023-02-08T06:23:55;42;41;
63131;PMS5003;49234;35.600;139.358;2023-02-08T06:26:24;48;48;
63131;PMS5003;49234;35.600;139.358;2023-02-08T06:28:53;46;45;
63131;PMS5003;49234;35.600;139.358;2023-02-08T06:31:24;49;49;
63131;PMS5003;49234;35.600;139.358;2023-02-08T06:33:58;45;42;
63131;PMS5003;49234;35.600;139.358;2023-02-08T06:36:30;46;45;
63131;PMS5003;49234;35.600;139.358;2023-02-08T06:38:59;51;45;
63131;PMS5003;49234;35.600;139.358;2023-02-08T06:41:28;50;44;
63131;PMS5003;49234;35.600;139.358;2023-02-08T06:43:58;47;43;
63131;PMS5003;49234;35.600;139.358;2023-02-08T06:46:26;51;49;
63131;PMS5003;49234;35.600;139.358;2023-02-08T06:48:55;45;43;
63131;PMS5003;49234;35.600;139.358;2023-02-08T06:51:25;50;44;
63131;PMS5003;49234;35.600;139.358;2023-02-08T06:53:54;53;48;
63131;PMS5003;49234;35.600;139.358;2023-02-08T06:56:23;55;46;
63131;PMS5003;49234;35.600;139.358;2023-02-08T06:58:52;54;47;
63131;PMS5003;49234;35.600;139.358;2023-02-08T07:01:34;51;48;
63131;PMS5003;49234;35.600;139.358;2023-02-08T07:04:14;48;46;
63131;PMS5003;49234;35.600;139.358;2023-02-08T07:07:02;52;43;
63131;PMS5003;49234;35.600;139.358;2023-02-08T07:09:47;45;43;
63131;PMS5003;49234;35.600;139.358;2023-02-08T07:12:16;46;43;
63131;PMS5003;49234;35.600;139.358;2023-02-08T07:14:45;49;45;
63131;PMS5003;49234;35.600;139.358;2023-02-08T07:17:14;47;45;
63131;PMS5003;49234;35.600;139.358;2023-02-08T07:19:44;57;53;
63131;PMS5003;49234;35.600;139.358;2023-02-08T07:22:13;52;48;
63131;PMS5003;49234;35.600;139.358;2023-02-08T07:24:43;60;52;
63131;PMS5003;49234;35.600;139.358;2023-02-08T07:27:12;47;45;
63131;PMS5003;49234;35.600;139.358;2023-02-08T07:29:41;56;51;
63131;PMS5003;49234;35.600;139.358;2023-02-08T07:32:09;55;50;
63131;PMS5003;49234;35.600;139.358;2023-02-08T07:34:39;53;51;
63131;PMS5003;49234;35.600;139.358;2023-02-08T07:37:08;51;47;
63131;PMS5003;49234;35.600;139.358;2023-02-08T07:39:37;61;55;
63131;PMS5003;49234;35.600;139.358;2023-02-08T07:42:08;50;45;
63131;PMS5003;49234;35.600;139.358;2023-02-08T07:44:42;49;45;
63131;PMS5003;49234;35.600;139.358;2023-02-08T07:47:11;46;42;
63131;PMS5003;49234;35.600;139.358;2023-02-08T07:49:40;51;47;
63131;PMS5003;49234;35.600;139.358;2023-02-08T07:52:09;53;50;
63131;PMS5003;49234;35.600;139.358;2023-02-08T07:54:38;57;52;
63131;PMS5003;49234;35.600;139.358;2023-02-08T07:57:07;52;49;
63131;PMS5003;49234;35.600;139.358;2023-02-08T07:59:37;54;49;
63131;PMS5003;49234;35.600;139.358;2023-02-08T08:02:05;48;45;
63131;PMS5003;49234;35.600;139.358;2023-02-08T08:04:36;49;48;
63131;PMS5003;49234;35.600;139.358;2023-02-08T08:07:05;55;49;
63131;PMS5003;49234;35.600;139.358;2023-02-08T08:09:34;47;47;
63131;PMS5003;49234;35.600;139.358;2023-02-08T08:12:03;54;52;
63131;PMS5003;49234;35.600;139.358;2023-02-08T08:14:32;56;52;
63131;PMS5003;49234;35.600;139.358;2023-02-08T08:17:02;57;55;
63131;PMS5003;49234;35.600;139.358;2023-02-08T08:19:31;58;56;
63131;PMS5003;49234;35.600;139.358;2023-02-08T08:22:00;64;55;
63131;PMS5003;49234;35.600;139.358;2023-02-08T08:24:29;62;56;
63131;PMS5003;49234;35.600;139.358;2023-02-08T08:26:58;60;59;
63131;PMS5003;49234;35.600;139.358;2023-02-08T08:29:29;70;61;
63131;PMS5003;49234;35.600;139.358;2023-02-08T08:31:59;61;60;
63131;PMS5003;49234;35.600;139.358;2023-02-08T08:34:29;59;56;
63131;PMS5003;49234;35.600;139.358;2023-02-08T08:36:59;57;53;
63131;PMS5003;49234;35.600;139.358;2023-02-08T08:39:29;61;59;
63131;PMS5003;49234;35.600;139.358;2023-02-08T08:41:59;63;60;
63131;PMS5003;49234;35.600;139.358;2023-02-08T08:44:29;69;63;
63131;PMS5003;49234;35.600;139.358;2023-02-08T08:46:59;66;59;
63131;PMS5003;49234;35.600;139.358;2023-02-08T08:49:28;67;59;
63131;PMS5003;49234;35.600;139.358;2023-02-08T08:51:57;62;57;
63131;PMS5003;49234;35.600;139.358;2023-02-08T08:54:26;60;56;
63131;PMS5003;49234;35.600;139.358;2023-02-08T08:56:55;65;60;
63131;PMS5003;49234;35.600;139.358;2023-02-08T08:59:24;61;55;
63131;PMS5003;49234;35.600;139.358;2023-02-08T09:01:53;69;64;
63131;PMS5003;49234;35.600;139.358;2023-02-08T09:04:23;66;60;
63131;PMS5003;49234;35.600;139.358;2023-02-08T09:06:52;66;60;
63131;PMS5003;49234;35.600;139.358;2023-02-08T09:09:22;63;59;
63131;PMS5003;49234;35.600;139.358;2023-02-08T09:11:51;76;67;
63131;PMS5003;49234;35.600;139.358;2023-02-08T09:14:21;71;62;
63131;PMS5003;49234;35.600;139.358;2023-02-08T09:16:50;72;61;
63131;PMS5003;49234;35.600;139.358;2023-02-08T09:19:19;67;58;
63131;PMS5003;49234;35.600;139.358;2023-02-08T09:21:48;62;56;
63131;PMS5003;49234;35.600;139.358;2023-02-08T09:24:17;66;56;
63131;PMS5003;49234;35.600;139.358;2023-02-08T09:26:47;69;60;
63131;PMS5003;49234;35.600;139.358;2023-02-08T09:29:16;63;60;
63131;PMS5003;49234;35.600;139.358;2023-02-08T09:31:46;72;65;
63131;PMS5003;49234;35.600;139.358;2023-02-08T09:34:16;58;55;
63131;PMS5003;49234;35.600;139.358;2023-02-08T09:36:45;66;62;
63131;PMS5003;49234;35.600;139.358;2023-02-08T09:39:15;62;59;
63131;PMS5003;49234;35.600;139.358;2023-02-08T09:42:53;70;57;
63131;PMS5003;49234;35.600;139.358;2023-02-08T09:45:39;69;62;
63131;PMS5003;49234;35.600;139.358;2023-02-08T09:48:18;68;62;
63131;PMS5003;49234;35.600;139.358;2023-02-08T09:50:53;73;62;
63131;PMS5003;49234;35.600;139.358;2023-02-08T09:53:28;57;53;
63131;PMS5003;49234;35.600;139.358;2023-02-08T09:56:01;49;49;
63131;PMS5003;49234;35.600;139.358;2023-02-08T09:58:34;50;48;
63131;PMS5003;49234;35.600;139.358;2023-02-08T10:01:07;46;42;
63131;PMS5003;49234;35.600;139.358;2023-02-08T10:03:45;46;45;
63131;PMS5003;49234;35.600;139.358;2023-02-08T10:06:17;50;48;
63131;PMS5003;49234;35.600;139.358;2023-02-08T10:08:48;47;46;
63131;PMS5003;49234;35.600;139.358;2023-02-08T10:11:26;44;43;
63131;PMS5003;49234;35.600;139.358;2023-02-08T10:14:14;50;47;
63131;PMS5003;49234;35.600;139.358;2023-02-08T10:16:58;45;44;
63131;PMS5003;49234;35.600;139.358;2023-02-08T10:19:39;60;54;
63131;PMS5003;49234;35.600;139.358;2023-02-08T10:22:25;56;50;
63131;PMS5003;49234;35.600;139.358;2023-02-08T10:25:08;50;45;
63131;PMS5003;49234;35.600;139.358;2023-02-08T10:27:49;51;50;
63131;PMS5003;49234;35.600;139.358;2023-02-08T10:30:35;49;46;
63131;PMS5003;49234;35.600;139.358;2023-02-08T10:33:16;49;46;
63131;PMS5003;49234;35.600;139.358;2023-02-08T10:35:48;56;52;
63131;PMS5003;49234;35.600;139.358;2023-02-08T10:38:22;49;45;
63131;PMS5003;49234;35.600;139.358;2023-02-08T10:40:54;54;46;
63131;PMS5003;49234;35.600;139.358;2023-02-08T10:43:27;62;52;
63131;PMS5003;49234;35.600;139.358;2023-02-08T10:46:07;52;49;
63131;PMS5003;49234;35.600;139.358;2023-02-08T10:48:45;59;51;
63131;PMS5003;49234;35.600;139.358;2023-02-08T10:51:22;55;50;
63131;PMS5003;49234;35.600;139.358;2023-02-08T10:53:52;56;50;
63131;PMS5003;49234;35.600;139.358;2023-02-08T10:56:30;62;54;
63131;PMS5003;49234;35.600;139.358;2023-02-08T10:59:11;65;60;
63131;PMS5003;49234;35.600;139.358;2023-02-08T11:01:43;59;51;
63131;PMS5003;49234;35.600;139.358;2023-02-08T11:04:15;66;58;
63131;PMS5003;49234;35.600;139.358;2023-02-08T11:06:47;64;58;
63131;PMS5003;49234;35.600;139.358;2023-02-08T11:09:22;61;59;
63131;PMS5003;49234;35.600;139.358;2023-02-08T11:11:53;68;61;
63131;PMS5003;49234;35.600;139.358;2023-02-08T11:14:24;62;58;
63131;PMS5003;49234;35.600;139.358;2023-02-08T11:16:56;63;56;
63131;PMS5003;49234;35.600;139.358;2023-02-08T11:19:29;65;57;
63131;PMS5003;49234;35.600;139.358;2023-02-08T11:22:02;55;52;
63131;PMS5003;49234;35.600;139.358;2023-02-08T11:24:34;61;56;
63131;PMS5003;49234;35.600;139.358;2023-02-08T11:27:14;63;58;
63131;PMS5003;49234;35.600;139.358;2023-02-08T11:30:08;58;53;
63131;PMS5003;49234;35.600;139.358;2023-02-08T11:32:48;59;56;
63131;PMS5003;49234;35.600;139.358;2023-02-08T11:35:51;66;58;
63131;PMS5003;49234;35.600;139.358;2023-02-08T11:38:28;57;54;
63131;PMS5003;49234;35.600;139.358;2023-02-08T11:40:59;51;48;
63131;PMS5003;49234;35.600;139.358;2023-02-08T11:43:31;64;60;
63131;PMS5003;49234;35.600;139.358;2023-02-08T11:46:02;61;57;
63131;PMS5003;49234;35.600;139.358;2023-02-08T11:48:42;63;60;
63131;PMS5003;49234;35.600;139.358;2023-02-08T11:51:23;61;59;
63131;PMS5003;49234;35.600;139.358;2023-02-08T11:53:55;69;63;
63131;PMS5003;49234;35.600;139.358;2023-02-08T11:56:25;76;67;
63131;PMS5003;49234;35.600;139.358;2023-02-08T11:58:58;66;59;
63131;PMS5003;49234;35.600;139.358;2023-02-08T12:01:30;67;60;
63131;PMS5003;49234;35.600;139.358;2023-02-08T12:04:02;57;53;
63131;PMS5003;49234;35.600;139.358;2023-02-08T12:06:37;60;54;
63131;PMS5003;49234;35.600;139.358;2023-02-08T12:09:30;57;54;
63131;PMS5003;49234;35.600;139.358;2023-02-08T12:12:21;68;62;
63131;PMS5003;49234;35.600;139.358;2023-02-08T12:15:01;68;63;
63131;PMS5003;49234;35.600;139.358;2023-02-08T12:17:42;56;52;
63131;PMS5003;49234;35.600;139.358;2023-02-08T12:20:31;65;55;
63131;PMS5003;49234;35.600;139.358;2023-02-08T12:23:25;60;55;
63131;PMS5003;49234;35.600;139.358;2023-02-08T12:26:16;62;55;
63131;PMS5003;49234;35.600;139.358;2023-02-08T12:29:00;62;56;
63131;PMS5003;49234;35.600;139.358;2023-02-08T12:31:59;63;53;
63131;PMS5003;49234;35.600;139.358;2023-02-08T12:34:46;68;57;
63131;PMS5003;49234;35.600;139.358;2023-02-08T12:37:32;63;60;
63131;PMS5003;49234;35.600;139.358;2023-02-08T12:40:13;59;56;
63131;PMS5003;49234;35.600;139.358;2023-02-08T12:42:53;63;55;
63131;PMS5003;49234;35.600;139.358;2023-02-08T12:45:42;62;57;
63131;PMS5003;49234;35.600;139.358;2023-02-08T12:48:26;55;54;
63131;PMS5003;49234;35.600;139.358;2023-02-08T12:51:08;68;58;
63131;PMS5003;49234;35.600;139.358;2023-02-08T12:53:47;61;57;
63131;PMS5003;49234;35.600;139.358;2023-02-08T12:56:20;79;68;
63131;PMS5003;49234;35.600;139.358;2023-02-08T12:58:54;62;55;
63131;PMS5003;49234;35.600;139.358;2023-02-08T13:01:27;62;56;
63131;PMS5003;49234;35.600;139.358;2023-02-08T13:04:02;61;54;
63131;PMS5003;49234;35.600;139.358;2023-02-08T13:06:36;60;54;
63131;PMS5003;49234;35.600;139.358;2023-02-08T13:09:12;60;58;
63131;PMS5003;49234;35.600;139.358;2023-02-08T13:11:49;61;53;
63131;PMS5003;49234;35.600;139.358;2023-02-08T13:14:24;62;57;
63131;PMS5003;49234;35.600;139.358;2023-02-08T13:16:59;64;61;
63131;PMS5003;49234;35.600;139.358;2023-02-08T13:19:41;71;63;
63131;PMS5003;49234;35.600;139.358;2023-02-08T13:22:17;62;58;
63131;PMS5003;49234;35.600;139.358;2023-02-08T13:24:47;66;60;
63131;PMS5003;49234;35.600;139.358;2023-02-08T13:27:19;65;60;
63131;PMS5003;49234;35.600;139.358;2023-02-08T13:29:49;67;62;
63131;PMS5003;49234;35.600;139.358;2023-02-08T13:32:22;64;63;
63131;PMS5003;49234;35.600;139.358;2023-02-08T13:34:56;72;66;
63131;PMS5003;49234;35.600;139.358;2023-02-08T13:37:30;61;58;
63131;PMS5003;49234;35.600;139.358;2023-02-08T13:40:02;59;56;
63131;PMS5003;49234;35.600;139.358;2023-02-08T13:42:45;60;60;
63131;PMS5003;49234;35.600;139.358;2023-02-08T13:45:21;59;54;
63131;PMS5003;49234;35.600;139.358;2023-02-08T13:47:56;59;58;
63131;PMS5003;49234;35.600;139.358;2023-02-08T13:50:44;63;59;
63131;PMS5003;49234;35.600;139.358;2023-02-08T13:53:15;77;65;
63131;PMS5003;49234;35.600;139.358;2023-02-08T13:55:52;69;64;
63131;PMS5003;49234;35.600;139.358;2023-02-08T13:58:26;64;59;
63131;PMS5003;49234;35.600;139.358;2023-02-08T14:01:07;66;60;
63131;PMS5003;49234;35.600;139.358;2023-02-08T14:03:45;66;58;
63131;PMS5003;49234;35.600;139.358;2023-02-08T14:06:54;66;60;
63131;PMS5003;49234;35.600;139.358;2023-02-08T14:09:31;66;60;
63131;PMS5003;49234;35.600;139.358;2023-02-08T14:12:12;63;62;
63131;PMS5003;49234;35.600;139.358;2023-02-08T14:16:21;64;54;
63131;PMS5003;49234;35.600;139.358;2023-02-08T14:19:01;68;60;
63131;PMS5003;49234;35.600;139.358;2023-02-08T14:21:34;57;55;
63131;PMS5003;49234;35.600;139.358;2023-02-08T14:24:17;65;56;
63131;PMS5003;49234;35.600;139.358;2023-02-08T14:26:49;59;54;
63131;PMS5003;49234;35.600;139.358;2023-02-08T14:29:31;58;55;
63131;PMS5003;49234;35.600;139.358;2023-02-08T14:32:01;59;56;
63131;PMS5003;49234;35.600;139.358;2023-02-08T14:34:31;56;54;
63131;PMS5003;49234;35.600;139.358;2023-02-08T14:37:24;60;52;
63131;PMS5003;49234;35.600;139.358;2023-02-08T14:40:53;58;55;
63131;PMS5003;49234;35.600;139.358;2023-02-08T14:43:29;62;57;
63131;PMS5003;49234;35.600;139.358;2023-02-08T14:47:06;71;61;
63131;PMS5003;49234;35.600;139.358;2023-02-08T14:49:42;56;52;
63131;PMS5003;49234;35.600;139.358;2023-02-08T14:52:14;60;53;
63131;PMS5003;49234;35.600;139.358;2023-02-08T14:54:48;54;51;
63131;PMS5003;49234;35.600;139.358;2023-02-08T14:57:24;53;48;
63131;PMS5003;49234;35.600;139.358;2023-02-08T14:59:55;56;52;
63131;PMS5003;49234;35.600;139.358;2023-02-08T15:02:28;49;40;
63131;PMS5003;49234;35.600;139.358;2023-02-08T15:04:57;42;37;
63131;PMS5003;49234;35.600;139.358;2023-02-08T15:07:30;34;33;
63131;PMS5003;49234;35.600;139.358;2023-02-08T15:10:09;42;37;
63131;PMS5003;49234;35.600;139.358;2023-02-08T15:12:41;41;36;
63131;PMS5003;49234;35.600;139.358;2023-02-08T15:15:20;36;34;
63131;PMS5003;49234;35.600;139.358;2023-02-08T15:17:52;36;33;
63131;PMS5003;49234;35.600;139.358;2023-02-08T15:20:23;43;37;
63131;PMS5003;49234;35.600;139.358;2023-02-08T15:23:00;40;36;
63131;PMS5003;49234;35.600;139.358;2023-02-08T15:25:31;31;31;
63131;PMS5003;49234;35.600;139.358;2023-02-08T15:28:02;28;27;
63131;PMS5003;49234;35.600;139.358;2023-02-08T15:30:43;33;29;
63131;PMS5003;49234;35.600;139.358;2023-02-08T15:33:19;31;27;
63131;PMS5003;49234;35.600;139.358;2023-02-08T15:35:54;35;32;
63131;PMS5003;49234;35.600;139.358;2023-02-08T15:38:26;29;29;
63131;PMS5003;49234;35.600;139.358;2023-02-08T15:41:00;27;26;
63131;PMS5003;49234;35.600;139.358;2023-02-08T15:43:31;33;32;
63131;PMS5003;49234;35.600;139.358;2023-02-08T15:46:03;36;30;
63131;PMS5003;49234;35.600;139.358;2023-02-08T15:48:43;34;31;
63131;PMS5003;49234;35.600;139.358;2023-02-08T15:51:13;30;27;
63131;PMS5003;49234;35.600;139.358;2023-02-08T15:53:44;30;30;
63131;PMS5003;49234;35.600;139.358;2023-02-08T15:56:15;29;29;
63131;PMS5003;49234;35.600;139.358;2023-02-08T15:58:48;32;29;
63131;PMS5003;49234;35.600;139.358;2023-02-08T16:01:21;29;29;
63131;PMS5003;49234;35.600;139.358;2023-02-08T16:03:52;33;32;
63131;PMS5003;49234;35.600;139.358;2023-02-08T16:06:26;29;27;
63131;PMS5003;49234;35.600;139.358;2023-02-08T16:08:58;31;29;
63131;PMS5003;49234;35.600;139.358;2023-02-08T16:11:30;31;29;
63131;PMS5003;49234;35.600;139.358;2023-02-08T16:14:02;30;28;
63131;PMS5003;49234;35.600;139.358;2023-02-08T16:16:37;28;25;
63131;PMS5003;49234;35.600;139.358;2023-02-08T16:19:22;24;23;
63131;PMS5003;49234;35.600;139.358;2023-02-08T16:21:54;29;26;
63131;PMS5003;49234;35.600;139.358;2023-02-08T16:24:41;26;24;
63131;PMS5003;49234;35.600;139.358;2023-02-08T16:27:16;28;24;
63131;PMS5003;49234;35.600;139.358;2023-02-08T16:29:51;24;21;
63131;PMS5003;49234;35.600;139.358;2023-02-08T16:32:23;25;23;
63131;PMS5003;49234;35.600;139.358;2023-02-08T16:34:56;21;20;